VNKT

Details ICAO VNKT (KTM)
Name Kathmandu Tribhuvan Intl
Region Nepal
Timezone Asia/Kathmandu (UTC+5.8)
Plans Departing 516
Arriving 558
Stats Elevation 4,390 ft / 1,338 m (AMSL)
Location 27.696583° 85.359100°
Runways 1
Magnetic Variation 0.517° E
Sunrise 2018-06-18 23:24:19 UTC / 2018-06-19 05:09:19 Local
Sunset 2018-06-19 13:17:54 UTC / 2018-06-19 19:02:54 Local
Advertisement - Login to hide

Runways

ID Width Length Bearing (true) Bearing (mag) Surface Threshold Offset Overrun Length
02 148 ft / 45 m 10,017 ft / 3,053 m 21.50° 20.98° Asphalt 0 ft / 0 m 0 ft / 0 m
20 148 ft / 45 m 10,017 ft / 3,053 m 201.51° 200.99° Asphalt 400 ft / 122 m 0 ft / 0 m

Map

Weather


0- 5 10 15 20 25 30 35+ Temperature / ° C

Clouds and Precipitation
Forecast for 2018-06-19 06:00 UTC. Updated 5 hours ago

Ground ~20,000 ft ~40,000 ft Winds

METAR

VNKT 190820Z 27007KT 220V310 8000 FEW020 30/19 Q1008 NOSIG

TAF

TAF VNKT 190500Z 1906/2006 30004KT 7000 FEW020 BECMG 1907/1908 28008KT 8000 FEW020 SCT030 PROB30 1908/1914 VRB10KT 4000 -TSRA FEW025CB BKN100 BECMG 1914/1915 VRB02KT 6000 FEW015 SCT030 BECMG 2000/2002 4000 BR FEW015 BECMG 2003/2004 16004KT 6000 FEW020

Frequencies

Recorded 127.00 MHz KATHMANDU ATIS
Tower 118.10 MHz KATHMANDU TWR
Approach 120.60 MHz KATHMANDU APP
Ground 121.90 MHz KATHMANDU GND
Tower 118.50 MHz KATHMANDU TWR
Approach 125.10 MHz KATHMANDU APP
Warning: Do not use this data for real-world aviation or navigation. No guarantee of current accuracy is given.